sensor_id;sensor_type;location;lat;lon;timestamp;temperature;humidity
4673;DHT22;61885;53.560;9.940;2023-08-12T00:01:32;21.30;77.90
4673;DHT22;61885;53.560;9.940;2023-08-12T00:04:05;21.20;78.00
4673;DHT22;61885;53.560;9.940;2023-08-12T00:06:35;21.20;78.40
4673;DHT22;61885;53.560;9.940;2023-08-12T00:09:05;21.10;78.40
4673;DHT22;61885;53.560;9.940;2023-08-12T00:11:37;20.90;78.30
4673;DHT22;61885;53.560;9.940;2023-08-12T00:14:08;21.00;78.60
4673;DHT22;61885;53.560;9.940;2023-08-12T00:16:38;20.80;79.50
4673;DHT22;61885;53.560;9.940;2023-08-12T00:19:26;20.90;78.80
4673;DHT22;61885;53.560;9.940;2023-08-12T00:21:56;21.10;78.60
4673;DHT22;61885;53.560;9.940;2023-08-12T00:24:26;20.90;78.60
4673;DHT22;61885;53.560;9.940;2023-08-12T00:27:00;21.00;78.60
4673;DHT22;61885;53.560;9.940;2023-08-12T00:29:30;21.10;78.50
4673;DHT22;61885;53.560;9.940;2023-08-12T00:32:03;20.90;78.80
4673;DHT22;61885;53.560;9.940;2023-08-12T00:34:34;20.80;79.50
4673;DHT22;61885;53.560;9.940;2023-08-12T00:37:12;20.80;79.80
4673;DHT22;61885;53.560;9.940;2023-08-12T00:39:45;20.80;79.50
4673;DHT22;61885;53.560;9.940;2023-08-12T00:42:17;20.80;79.80
4673;DHT22;61885;53.560;9.940;2023-08-12T00:44:49;20.80;79.70
4673;DHT22;61885;53.560;9.940;2023-08-12T00:47:22;20.70;79.80
4673;DHT22;61885;53.560;9.940;2023-08-12T00:49:55;20.60;80.20
4673;DHT22;61885;53.560;9.940;2023-08-12T00:52:28;20.70;80.10
4673;DHT22;61885;53.560;9.940;2023-08-12T00:54:58;20.60;80.20
4673;DHT22;61885;53.560;9.940;2023-08-12T00:57:30;20.60;80.60
4673;DHT22;61885;53.560;9.940;2023-08-12T01:00:04;20.60;80.40
4673;DHT22;61885;53.560;9.940;2023-08-12T01:02:39;20.50;80.60
4673;DHT22;61885;53.560;9.940;2023-08-12T01:05:11;20.50;80.90
4673;DHT22;61885;53.560;9.940;2023-08-12T01:07:42;20.50;80.90
4673;DHT22;61885;53.560;9.940;2023-08-12T01:10:13;20.40;81.10
4673;DHT22;61885;53.560;9.940;2023-08-12T01:12:53;20.40;81.00
4673;DHT22;61885;53.560;9.940;2023-08-12T01:15:26;20.40;81.20
4673;DHT22;61885;53.560;9.940;2023-08-12T01:18:00;20.50;81.10
4673;DHT22;61885;53.560;9.940;2023-08-12T01:20:33;20.40;80.90
4673;DHT22;61885;53.560;9.940;2023-08-12T01:23:12;20.40;80.70
4673;DHT22;61885;53.560;9.940;2023-08-12T01:25:44;20.50;80.50
4673;DHT22;61885;53.560;9.940;2023-08-12T01:28:13;20.40;80.60
4673;DHT22;61885;53.560;9.940;2023-08-12T01:30:49;20.30;81.00
4673;DHT22;61885;53.560;9.940;2023-08-12T01:33:31;20.20;81.10
4673;DHT22;61885;53.560;9.940;2023-08-12T01:36:09;20.30;81.20
4673;DHT22;61885;53.560;9.940;2023-08-12T01:38:44;20.30;80.90
4673;DHT22;61885;53.560;9.940;2023-08-12T01:41:18;20.40;80.50
4673;DHT22;61885;53.560;9.940;2023-08-12T01:43:50;20.40;80.40
4673;DHT22;61885;53.560;9.940;2023-08-12T01:46:21;20.40;80.40
4673;DHT22;61885;53.560;9.940;2023-08-12T01:48:53;20.30;80.70
4673;DHT22;61885;53.560;9.940;2023-08-12T01:51:24;20.30;80.90
4673;DHT22;61885;53.560;9.940;2023-08-12T01:53:57;20.20;81.30
4673;DHT22;61885;53.560;9.940;2023-08-12T01:56:29;20.10;81.50
4673;DHT22;61885;53.560;9.940;2023-08-12T01:58:59;20.00;81.80
4673;DHT22;61885;53.560;9.940;2023-08-12T02:01:29;20.20;81.90
4673;DHT22;61885;53.560;9.940;2023-08-12T02:03:59;20.20;81.60
4673;DHT22;61885;53.560;9.940;2023-08-12T02:06:29;20.00;81.90
4673;DHT22;61885;53.560;9.940;2023-08-12T02:09:02;20.00;82.00
4673;DHT22;61885;53.560;9.940;2023-08-12T02:11:35;19.90;82.30
4673;DHT22;61885;53.560;9.940;2023-08-12T02:14:05;19.80;82.50
4673;DHT22;61885;53.560;9.940;2023-08-12T02:16:43;19.90;82.40
4673;DHT22;61885;53.560;9.940;2023-08-12T02:19:30;19.80;82.40
4673;DHT22;61885;53.560;9.940;2023-08-12T02:22:02;19.80;82.20
4673;DHT22;61885;53.560;9.940;2023-08-12T02:24:35;19.90;82.20
4673;DHT22;61885;53.560;9.940;2023-08-12T02:27:04;19.80;82.40
4673;DHT22;61885;53.560;9.940;2023-08-12T02:29:34;19.70;82.70
4673;DHT22;61885;53.560;9.940;2023-08-12T02:32:05;19.90;82.70
4673;DHT22;61885;53.560;9.940;2023-08-12T02:34:40;19.90;82.70
4673;DHT22;61885;53.560;9.940;2023-08-12T02:37:10;19.70;82.90
4673;DHT22;61885;53.560;9.940;2023-08-12T02:39:44;19.70;82.90
4673;DHT22;61885;53.560;9.940;2023-08-12T02:42:15;19.70;83.10
4673;DHT22;61885;53.560;9.940;2023-08-12T02:44:46;19.70;83.00
4673;DHT22;61885;53.560;9.940;2023-08-12T02:47:18;19.70;83.00
4673;DHT22;61885;53.560;9.940;2023-08-12T02:49:48;19.70;83.10
4673;DHT22;61885;53.560;9.940;2023-08-12T02:52:18;19.80;83.10
4673;DHT22;61885;53.560;9.940;2023-08-12T02:54:50;19.80;82.60
4673;DHT22;61885;53.560;9.940;2023-08-12T02:57:21;19.80;82.70
4673;DHT22;61885;53.560;9.940;2023-08-12T02:59:53;19.90;82.80
4673;DHT22;61885;53.560;9.940;2023-08-12T03:02:25;19.90;82.40
4673;DHT22;61885;53.560;9.940;2023-08-12T03:04:58;19.90;82.60
4673;DHT22;61885;53.560;9.940;2023-08-12T03:07:27;19.70;83.10
4673;DHT22;61885;53.560;9.940;2023-08-12T03:10:04;19.60;83.40
4673;DHT22;61885;53.560;9.940;2023-08-12T03:12:35;19.60;83.70
4673;DHT22;61885;53.560;9.940;2023-08-12T03:15:08;19.70;83.40
4673;DHT22;61885;53.560;9.940;2023-08-12T03:17:39;19.50;83.80
4673;DHT22;61885;53.560;9.940;2023-08-12T03:20:12;19.50;84.00
4673;DHT22;61885;53.560;9.940;2023-08-12T03:22:45;19.40;84.60
4673;DHT22;61885;53.560;9.940;2023-08-12T03:25:18;19.40;84.70
4673;DHT22;61885;53.560;9.940;2023-08-12T03:27:49;19.50;84.40
4673;DHT22;61885;53.560;9.940;2023-08-12T03:30:22;19.50;84.10
4673;DHT22;61885;53.560;9.940;2023-08-12T03:32:53;19.50;84.20
4673;DHT22;61885;53.560;9.940;2023-08-12T03:35:28;19.50;84.40
4673;DHT22;61885;53.560;9.940;2023-08-12T03:37:58;19.40;84.70
4673;DHT22;61885;53.560;9.940;2023-08-12T03:40:31;19.50;84.20
4673;DHT22;61885;53.560;9.940;2023-08-12T03:43:03;19.50;84.30
4673;DHT22;61885;53.560;9.940;2023-08-12T03:45:33;19.50;84.40
4673;DHT22;61885;53.560;9.940;2023-08-12T03:48:06;19.50;84.40
4673;DHT22;61885;53.560;9.940;2023-08-12T03:50:36;19.50;84.50
4673;DHT22;61885;53.560;9.940;2023-08-12T03:53:06;19.50;84.00
4673;DHT22;61885;53.560;9.940;2023-08-12T03:55:38;19.60;84.00
4673;DHT22;61885;53.560;9.940;2023-08-12T03:58:08;19.50;84.20
4673;DHT22;61885;53.560;9.940;2023-08-12T04:00:41;19.40;84.60
4673;DHT22;61885;53.560;9.940;2023-08-12T04:03:13;19.40;84.70
4673;DHT22;61885;53.560;9.940;2023-08-12T04:05:50;19.30;84.80
4673;DHT22;61885;53.560;9.940;2023-08-12T04:08:23;19.50;84.60
4673;DHT22;61885;53.560;9.940;2023-08-12T04:10:58;19.60;83.70
4673;DHT22;61885;53.560;9.940;2023-08-12T04:13:28;19.70;83.30
4673;DHT22;61885;53.560;9.940;2023-08-12T04:15:58;19.70;83.40
4673;DHT22;61885;53.560;9.940;2023-08-12T04:18:28;19.70;83.50
4673;DHT22;61885;53.560;9.940;2023-08-12T04:20:58;19.60;83.60
4673;DHT22;61885;53.560;9.940;2023-08-12T04:23:30;19.60;83.70
4673;DHT22;61885;53.560;9.940;2023-08-12T04:26:02;19.70;83.60
4673;DHT22;61885;53.560;9.940;2023-08-12T04:28:32;19.70;83.50
4673;DHT22;61885;53.560;9.940;2023-08-12T04:31:06;19.70;83.70
4673;DHT22;61885;53.560;9.940;2023-08-12T04:33:37;19.60;83.90
4673;DHT22;61885;53.560;9.940;2023-08-12T04:36:07;19.50;84.40
4673;DHT22;61885;53.560;9.940;2023-08-12T04:38:38;19.50;84.70
4673;DHT22;61885;53.560;9.940;2023-08-12T04:41:13;19.70;84.20
4673;DHT22;61885;53.560;9.940;2023-08-12T04:43:43;19.70;83.80
4673;DHT22;61885;53.560;9.940;2023-08-12T04:46:13;19.60;83.60
4673;DHT22;61885;53.560;9.940;2023-08-12T04:48:42;19.70;83.60
4673;DHT22;61885;53.560;9.940;2023-08-12T04:51:14;19.80;83.40
4673;DHT22;61885;53.560;9.940;2023-08-12T04:53:44;19.80;83.30
4673;DHT22;61885;53.560;9.940;2023-08-12T04:56:16;19.80;83.30
4673;DHT22;61885;53.560;9.940;2023-08-12T04:58:46;19.90;83.50
4673;DHT22;61885;53.560;9.940;2023-08-12T05:01:15;19.80;83.20
4673;DHT22;61885;53.560;9.940;2023-08-12T05:03:45;19.70;83.80
4673;DHT22;61885;53.560;9.940;2023-08-12T05:06:15;19.70;84.20
4673;DHT22;61885;53.560;9.940;2023-08-12T05:08:45;19.50;84.60
4673;DHT22;61885;53.560;9.940;2023-08-12T05:11:17;19.70;83.90
4673;DHT22;61885;53.560;9.940;2023-08-12T05:13:47;19.60;84.20
4673;DHT22;61885;53.560;9.940;2023-08-12T05:16:17;19.70;84.30
4673;DHT22;61885;53.560;9.940;2023-08-12T05:18:46;19.80;84.00
4673;DHT22;61885;53.560;9.940;2023-08-12T05:21:16;19.80;83.60
4673;DHT22;61885;53.560;9.940;2023-08-12T05:23:46;20.10;84.00
4673;DHT22;61885;53.560;9.940;2023-08-12T05:26:18;20.00;83.80
4673;DHT22;61885;53.560;9.940;2023-08-12T05:28:48;19.90;84.50
4673;DHT22;61885;53.560;9.940;2023-08-12T05:31:18;19.80;85.10
4673;DHT22;61885;53.560;9.940;2023-08-12T05:33:47;19.80;85.30
4673;DHT22;61885;53.560;9.940;2023-08-12T05:36:17;19.80;85.70
4673;DHT22;61885;53.560;9.940;2023-08-12T05:38:46;19.70;86.50
4673;DHT22;61885;53.560;9.940;2023-08-12T05:41:19;19.60;87.30
4673;DHT22;61885;53.560;9.940;2023-08-12T05:43:48;19.60;87.80
4673;DHT22;61885;53.560;9.940;2023-08-12T05:46:18;19.50;88.40
4673;DHT22;61885;53.560;9.940;2023-08-12T05:48:49;19.50;88.60
4673;DHT22;61885;53.560;9.940;2023-08-12T05:51:22;19.50;89.50
4673;DHT22;61885;53.560;9.940;2023-08-12T05:53:52;19.50;90.20
4673;DHT22;61885;53.560;9.940;2023-08-12T05:56:24;19.50;90.00
4673;DHT22;61885;53.560;9.940;2023-08-12T05:58:56;19.40;90.80
4673;DHT22;61885;53.560;9.940;2023-08-12T06:01:25;19.60;91.60
4673;DHT22;61885;53.560;9.940;2023-08-12T06:03:55;19.60;91.80
4673;DHT22;61885;53.560;9.940;2023-08-12T06:06:24;19.60;92.50
4673;DHT22;61885;53.560;9.940;2023-08-12T06:08:54;19.60;92.70
4673;DHT22;61885;53.560;9.940;2023-08-12T06:11:26;19.50;92.20
4673;DHT22;61885;53.560;9.940;2023-08-12T06:13:56;19.40;92.20
4673;DHT22;61885;53.560;9.940;2023-08-12T06:16:26;19.30;92.30
4673;DHT22;61885;53.560;9.940;2023-08-12T06:18:56;19.20;92.80
4673;DHT22;61885;53.560;9.940;2023-08-12T06:21:26;19.30;93.50
4673;DHT22;61885;53.560;9.940;2023-08-12T06:23:56;19.30;93.00
4673;DHT22;61885;53.560;9.940;2023-08-12T06:26:28;19.40;93.70
4673;DHT22;61885;53.560;9.940;2023-08-12T06:28:58;19.40;93.90
4673;DHT22;61885;53.560;9.940;2023-08-12T06:31:27;19.40;93.90
4673;DHT22;61885;53.560;9.940;2023-08-12T06:33:57;19.50;94.20
4673;DHT22;61885;53.560;9.940;2023-08-12T06:36:27;19.40;94.40
4673;DHT22;61885;53.560;9.940;2023-08-12T06:38:57;19.40;94.20
4673;DHT22;61885;53.560;9.940;2023-08-12T06:41:29;19.50;94.50
4673;DHT22;61885;53.560;9.940;2023-08-12T06:43:58;19.40;94.50
4673;DHT22;61885;53.560;9.940;2023-08-12T06:46:31;19.50;94.00
4673;DHT22;61885;53.560;9.940;2023-08-12T06:49:00;19.40;94.10
4673;DHT22;61885;53.560;9.940;2023-08-12T06:51:31;19.30;94.30
4673;DHT22;61885;53.560;9.940;2023-08-12T06:54:03;19.40;94.80
4673;DHT22;61885;53.560;9.940;2023-08-12T06:56:35;19.40;94.40
4673;DHT22;61885;53.560;9.940;2023-08-12T06:59:07;19.40;94.80
4673;DHT22;61885;53.560;9.940;2023-08-12T07:01:37;19.30;94.70
4673;DHT22;61885;53.560;9.940;2023-08-12T07:04:07;19.50;95.20
4673;DHT22;61885;53.560;9.940;2023-08-12T07:06:37;19.60;94.70
4673;DHT22;61885;53.560;9.940;2023-08-12T07:09:06;19.60;94.40
4673;DHT22;61885;53.560;9.940;2023-08-12T07:11:38;19.70;94.40
4673;DHT22;61885;53.560;9.940;2023-08-12T07:14:08;19.80;94.20
4673;DHT22;61885;53.560;9.940;2023-08-12T07:16:38;19.70;93.80
4673;DHT22;61885;53.560;9.940;2023-08-12T07:19:08;19.70;94.20
4673;DHT22;61885;53.560;9.940;2023-08-12T07:21:40;19.80;94.70
4673;DHT22;61885;53.560;9.940;2023-08-12T07:24:10;19.80;94.50
4673;DHT22;61885;53.560;9.940;2023-08-12T07:26:43;19.90;94.30
4673;DHT22;61885;53.560;9.940;2023-08-12T07:29:13;19.90;94.50
4673;DHT22;61885;53.560;9.940;2023-08-12T07:31:43;20.10;94.20
4673;DHT22;61885;53.560;9.940;2023-08-12T07:34:13;20.10;93.50
4673;DHT22;61885;53.560;9.940;2023-08-12T07:36:42;20.30;93.20
4673;DHT22;61885;53.560;9.940;2023-08-12T07:39:14;20.50;92.60
4673;DHT22;61885;53.560;9.940;2023-08-12T07:41:46;20.80;92.60
4673;DHT22;61885;53.560;9.940;2023-08-12T07:44:16;20.90;90.50
4673;DHT22;61885;53.560;9.940;2023-08-12T07:46:45;20.70;91.70
4673;DHT22;61885;53.560;9.940;2023-08-12T07:49:16;20.60;92.30
4673;DHT22;61885;53.560;9.940;2023-08-12T07:51:47;20.90;92.40
4673;DHT22;61885;53.560;9.940;2023-08-12T07:54:18;20.90;91.70
4673;DHT22;61885;53.560;9.940;2023-08-12T07:56:53;20.80;91.70
4673;DHT22;61885;53.560;9.940;2023-08-12T07:59:23;20.70;91.50
4673;DHT22;61885;53.560;9.940;2023-08-12T08:01:54;20.80;92.00
4673;DHT22;61885;53.560;9.940;2023-08-12T08:04:24;20.80;92.30
4673;DHT22;61885;53.560;9.940;2023-08-12T08:06:54;20.80;92.30
4673;DHT22;61885;53.560;9.940;2023-08-12T08:09:24;21.10;91.40
4673;DHT22;61885;53.560;9.940;2023-08-12T08:11:59;21.30;90.60
4673;DHT22;61885;53.560;9.940;2023-08-12T08:14:29;21.10;90.40
4673;DHT22;61885;53.560;9.940;2023-08-12T08:16:59;21.10;90.90
4673;DHT22;61885;53.560;9.940;2023-08-12T08:19:29;21.20;90.80
4673;DHT22;61885;53.560;9.940;2023-08-12T08:21:59;21.10;90.50
4673;DHT22;61885;53.560;9.940;2023-08-12T08:24:29;21.20;90.50
4673;DHT22;61885;53.560;9.940;2023-08-12T08:27:01;21.40;89.70
4673;DHT22;61885;53.560;9.940;2023-08-12T08:29:32;21.50;89.10
4673;DHT22;61885;53.560;9.940;2023-08-12T08:32:03;21.60;89.40
4673;DHT22;61885;53.560;9.940;2023-08-12T08:34:36;21.60;88.60
4673;DHT22;61885;53.560;9.940;2023-08-12T08:37:05;21.80;87.00
4673;DHT22;61885;53.560;9.940;2023-08-12T08:39:37;22.10;87.60
4673;DHT22;61885;53.560;9.940;2023-08-12T08:42:16;22.00;87.60
4673;DHT22;61885;53.560;9.940;2023-08-12T08:44:52;21.90;87.80
4673;DHT22;61885;53.560;9.940;2023-08-12T08:47:28;22.10;88.00
4673;DHT22;61885;53.560;9.940;2023-08-12T08:49:59;22.10;87.30
4673;DHT22;61885;53.560;9.940;2023-08-12T08:52:30;22.20;87.20
4673;DHT22;61885;53.560;9.940;2023-08-12T08:55:03;22.30;86.40
4673;DHT22;61885;53.560;9.940;2023-08-12T08:57:39;22.10;86.20
4673;DHT22;61885;53.560;9.940;2023-08-12T09:00:15;22.00;85.80
4673;DHT22;61885;53.560;9.940;2023-08-12T09:02:46;22.00;85.70
4673;DHT22;61885;53.560;9.940;2023-08-12T09:05:18;22.00;85.80
4673;DHT22;61885;53.560;9.940;2023-08-12T09:07:50;22.00;86.30
4673;DHT22;61885;53.560;9.940;2023-08-12T09:10:21;22.00;87.00
4673;DHT22;61885;53.560;9.940;2023-08-12T09:13:00;22.00;87.20
4673;DHT22;61885;53.560;9.940;2023-08-12T09:15:32;21.90;87.90
4673;DHT22;61885;53.560;9.940;2023-08-12T09:18:05;21.80;88.60
4673;DHT22;61885;53.560;9.940;2023-08-12T09:20:45;21.70;88.60
4673;DHT22;61885;53.560;9.940;2023-08-12T09:23:16;21.60;88.90
4673;DHT22;61885;53.560;9.940;2023-08-12T09:25:54;21.50;89.50
4673;DHT22;61885;53.560;9.940;2023-08-12T09:28:32;21.50;90.20
4673;DHT22;61885;53.560;9.940;2023-08-12T09:31:02;21.50;89.90
4673;DHT22;61885;53.560;9.940;2023-08-12T09:33:39;21.50;90.00
4673;DHT22;61885;53.560;9.940;2023-08-12T09:36:09;21.60;89.80
4673;DHT22;61885;53.560;9.940;2023-08-12T09:38:41;21.50;90.30
4673;DHT22;61885;53.560;9.940;2023-08-12T09:41:15;21.40;90.50
4673;DHT22;61885;53.560;9.940;2023-08-12T09:43:51;21.60;90.40
4673;DHT22;61885;53.560;9.940;2023-08-12T09:46:22;21.50;90.10
4673;DHT22;61885;53.560;9.940;2023-08-12T09:48:52;21.40;90.30
4673;DHT22;61885;53.560;9.940;2023-08-12T09:51:34;21.40;90.40
4673;DHT22;61885;53.560;9.940;2023-08-12T09:54:04;21.50;90.60
4673;DHT22;61885;53.560;9.940;2023-08-12T09:56:39;21.60;90.50
4673;DHT22;61885;53.560;9.940;2023-08-12T09:59:13;21.60;90.60
4673;DHT22;61885;53.560;9.940;2023-08-12T10:01:45;21.70;90.80
4673;DHT22;61885;53.560;9.940;2023-08-12T10:04:17;21.90;90.40
4673;DHT22;61885;53.560;9.940;2023-08-12T10:06:48;21.90;89.60
4673;DHT22;61885;53.560;9.940;2023-08-12T10:09:17;21.80;89.40
4673;DHT22;61885;53.560;9.940;2023-08-12T10:11:47;21.90;89.30
4673;DHT22;61885;53.560;9.940;2023-08-12T10:14:21;21.90;89.00
4673;DHT22;61885;53.560;9.940;2023-08-12T10:16:52;21.80;89.70
4673;DHT22;61885;53.560;9.940;2023-08-12T10:19:22;21.80;89.20
4673;DHT22;61885;53.560;9.940;2023-08-12T10:21:56;21.80;88.80
4673;DHT22;61885;53.560;9.940;2023-08-12T10:24:27;21.90;88.30
4673;DHT22;61885;53.560;9.940;2023-08-12T10:26:56;22.20;88.70
4673;DHT22;61885;53.560;9.940;2023-08-12T10:29:29;22.20;87.20
4673;DHT22;61885;53.560;9.940;2023-08-12T10:32:02;22.20;86.50
4673;DHT22;61885;53.560;9.940;2023-08-12T10:34:34;22.30;86.80
4673;DHT22;61885;53.560;9.940;2023-08-12T10:37:05;22.20;87.20
4673;DHT22;61885;53.560;9.940;2023-08-12T10:39:35;22.20;87.40
4673;DHT22;61885;53.560;9.940;2023-08-12T10:42:06;22.20;88.00
4673;DHT22;61885;53.560;9.940;2023-08-12T10:44:51;22.10;87.70
4673;DHT22;61885;53.560;9.940;2023-08-12T10:47:21;22.20;86.80
4673;DHT22;61885;53.560;9.940;2023-08-12T10:49:53;22.20;87.00
4673;DHT22;61885;53.560;9.940;2023-08-12T10:52:27;22.10;87.70
4673;DHT22;61885;53.560;9.940;2023-08-12T10:55:19;22.00;87.60
4673;DHT22;61885;53.560;9.940;2023-08-12T10:57:50;22.10;88.30
4673;DHT22;61885;53.560;9.940;2023-08-12T11:00:24;22.30;86.70
4673;DHT22;61885;53.560;9.940;2023-08-12T11:02:56;22.40;85.90
4673;DHT22;61885;53.560;9.940;2023-08-12T11:05:36;22.60;86.00
4673;DHT22;61885;53.560;9.940;2023-08-12T11:08:11;22.80;85.50
4673;DHT22;61885;53.560;9.940;2023-08-12T11:10:45;23.00;83.80
4673;DHT22;61885;53.560;9.940;2023-08-12T11:13:17;23.20;83.60
4673;DHT22;61885;53.560;9.940;2023-08-12T11:15:51;23.60;82.30
4673;DHT22;61885;53.560;9.940;2023-08-12T11:18:20;23.60;81.80
4673;DHT22;61885;53.560;9.940;2023-08-12T11:20:50;23.70;81.60
4673;DHT22;61885;53.560;9.940;2023-08-12T11:23:21;23.70;81.90
4673;DHT22;61885;53.560;9.940;2023-08-12T11:25:51;23.60;80.50
4673;DHT22;61885;53.560;9.940;2023-08-12T11:28:25;23.30;82.00
4673;DHT22;61885;53.560;9.940;2023-08-12T11:30:58;23.20;82.50
4673;DHT22;61885;53.560;9.940;2023-08-12T11:33:28;23.10;82.70
4673;DHT22;61885;53.560;9.940;2023-08-12T11:36:03;22.90;82.80
4673;DHT22;61885;53.560;9.940;2023-08-12T11:38:38;22.50;83.50
4673;DHT22;61885;53.560;9.940;2023-08-12T11:41:09;22.50;85.10
4673;DHT22;61885;53.560;9.940;2023-08-12T11:43:45;22.50;84.80
4673;DHT22;61885;53.560;9.940;2023-08-12T11:46:18;22.40;84.70
4673;DHT22;61885;53.560;9.940;2023-08-12T11:48:51;22.10;85.80
4673;DHT22;61885;53.560;9.940;2023-08-12T11:51:32;22.00;86.80
4673;DHT22;61885;53.560;9.940;2023-08-12T11:54:06;22.00;87.70
4673;DHT22;61885;53.560;9.940;2023-08-12T11:56:39;21.70;89.20
4673;DHT22;61885;53.560;9.940;2023-08-12T11:59:11;21.40;90.20
4673;DHT22;61885;53.560;9.940;2023-08-12T12:01:46;21.20;91.00
4673;DHT22;61885;53.560;9.940;2023-08-12T12:04:17;21.30;91.30
4673;DHT22;61885;53.560;9.940;2023-08-12T12:06:51;21.20;90.50
4673;DHT22;61885;53.560;9.940;2023-08-12T12:09:21;21.30;91.60
4673;DHT22;61885;53.560;9.940;2023-08-12T12:11:53;21.30;90.90
4673;DHT22;61885;53.560;9.940;2023-08-12T12:14:24;21.40;91.30
4673;DHT22;61885;53.560;9.940;2023-08-12T12:16:59;21.40;90.30
4673;DHT22;61885;53.560;9.940;2023-08-12T12:19:32;21.50;89.70
4673;DHT22;61885;53.560;9.940;2023-08-12T12:22:03;21.00;91.40
4673;DHT22;61885;53.560;9.940;2023-08-12T12:24:44;20.80;93.20
4673;DHT22;61885;53.560;9.940;2023-08-12T12:27:14;20.90;93.00
4673;DHT22;61885;53.560;9.940;2023-08-12T12:29:46;21.30;92.60
4673;DHT22;61885;53.560;9.940;2023-08-12T12:32:21;21.10;91.50
4673;DHT22;61885;53.560;9.940;2023-08-12T12:34:52;20.80;92.80
4673;DHT22;61885;53.560;9.940;2023-08-12T12:37:23;20.80;92.60
4673;DHT22;61885;53.560;9.940;2023-08-12T12:39:57;20.90;92.20
4673;DHT22;61885;53.560;9.940;2023-08-12T12:42:28;21.10;92.50
4673;DHT22;61885;53.560;9.940;2023-08-12T12:44:59;21.30;91.30
4673;DHT22;61885;53.560;9.940;2023-08-12T12:47:32;21.20;92.00
4673;DHT22;61885;53.560;9.940;2023-08-12T12:50:07;21.20;90.90
4673;DHT22;61885;53.560;9.940;2023-08-12T12:52:37;21.30;91.40
4673;DHT22;61885;53.560;9.940;2023-08-12T12:55:08;21.30;91.60
4673;DHT22;61885;53.560;9.940;2023-08-12T12:57:37;21.20;91.40
4673;DHT22;61885;53.560;9.940;2023-08-12T13:00:12;21.10;91.80
4673;DHT22;61885;53.560;9.940;2023-08-12T13:02:45;21.10;92.20
4673;DHT22;61885;53.560;9.940;2023-08-12T13:05:17;21.10;92.30
4673;DHT22;61885;53.560;9.940;2023-08-12T13:07:49;21.20;92.50
4673;DHT22;61885;53.560;9.940;2023-08-12T13:10:18;21.20;92.10
4673;DHT22;61885;53.560;9.940;2023-08-12T13:12:48;21.20;92.70
4673;DHT22;61885;53.560;9.940;2023-08-12T13:15:18;21.40;92.80
4673;DHT22;61885;53.560;9.940;2023-08-12T13:17:56;21.50;92.90
4673;DHT22;61885;53.560;9.940;2023-08-12T13:20:25;21.60;92.30
4673;DHT22;61885;53.560;9.940;2023-08-12T13:22:57;21.60;92.20
4673;DHT22;61885;53.560;9.940;2023-08-12T13:25:35;21.50;92.20
4673;DHT22;61885;53.560;9.940;2023-08-12T13:28:05;21.50;92.70
4673;DHT22;61885;53.560;9.940;2023-08-12T13:30:35;21.60;92.10
4673;DHT22;61885;53.560;9.940;2023-08-12T13:33:08;21.50;92.70
4673;DHT22;61885;53.560;9.940;2023-08-12T13:35:37;21.50;93.50
4673;DHT22;61885;53.560;9.940;2023-08-12T13:38:07;21.50;93.30
4673;DHT22;61885;53.560;9.940;2023-08-12T13:40:38;21.50;93.30
4673;DHT22;61885;53.560;9.940;2023-08-12T13:43:11;21.60;93.40
4673;DHT22;61885;53.560;9.940;2023-08-12T13:45:40;21.60;93.50
4673;DHT22;61885;53.560;9.940;2023-08-12T13:48:12;21.50;94.20
4673;DHT22;61885;53.560;9.940;2023-08-12T13:50:42;21.50;93.30
4673;DHT22;61885;53.560;9.940;2023-08-12T13:53:18;21.40;94.00
4673;DHT22;61885;53.560;9.940;2023-08-12T13:55:50;21.40;93.70
4673;DHT22;61885;53.560;9.940;2023-08-12T13:58:22;21.40;94.60
4673;DHT22;61885;53.560;9.940;2023-08-12T14:00:54;21.40;94.10
4673;DHT22;61885;53.560;9.940;2023-08-12T14:03:26;21.30;95.10
4673;DHT22;61885;53.560;9.940;2023-08-12T14:05:57;21.50;94.50
4673;DHT22;61885;53.560;9.940;2023-08-12T14:08:29;21.40;94.40
4673;DHT22;61885;53.560;9.940;2023-08-12T14:10:58;21.50;95.00
4673;DHT22;61885;53.560;9.940;2023-08-12T14:13:28;21.60;95.10
4673;DHT22;61885;53.560;9.940;2023-08-12T14:16:01;21.70;94.30
4673;DHT22;61885;53.560;9.940;2023-08-12T14:18:35;21.60;94.10
4673;DHT22;61885;53.560;9.940;2023-08-12T14:21:05;21.60;94.20
4673;DHT22;61885;53.560;9.940;2023-08-12T14:23:34;21.60;93.70
4673;DHT22;61885;53.560;9.940;2023-08-12T14:26:06;21.40;93.70
4673;DHT22;61885;53.560;9.940;2023-08-12T14:28:35;21.40;94.10
4673;DHT22;61885;53.560;9.940;2023-08-12T14:31:07;21.30;94.60
4673;DHT22;61885;53.560;9.940;2023-08-12T14:33:40;21.30;94.80
4673;DHT22;61885;53.560;9.940;2023-08-12T14:36:09;21.20;94.70
4673;DHT22;61885;53.560;9.940;2023-08-12T14:38:39;21.10;95.10
4673;DHT22;61885;53.560;9.940;2023-08-12T14:41:10;21.20;94.80
4673;DHT22;61885;53.560;9.940;2023-08-12T14:43:40;21.30;94.60
4673;DHT22;61885;53.560;9.940;2023-08-12T14:46:19;20.90;94.50
4673;DHT22;61885;53.560;9.940;2023-08-12T14:48:51;20.90;95.10
4673;DHT22;61885;53.560;9.940;2023-08-12T14:51:26;20.90;94.80
4673;DHT22;61885;53.560;9.940;2023-08-12T14:53:59;21.00;94.90
4673;DHT22;61885;53.560;9.940;2023-08-12T14:56:29;21.00;94.90
4673;DHT22;61885;53.560;9.940;2023-08-12T14:58:58;21.20;94.50
4673;DHT22;61885;53.560;9.940;2023-08-12T15:01:28;21.20;95.20
4673;DHT22;61885;53.560;9.940;2023-08-12T15:04:00;21.20;95.20
4673;DHT22;61885;53.560;9.940;2023-08-12T15:06:31;21.20;95.10
4673;DHT22;61885;53.560;9.940;2023-08-12T15:09:01;21.30;95.20
4673;DHT22;61885;53.560;9.940;2023-08-12T15:11:31;21.30;95.20
4673;DHT22;61885;53.560;9.940;2023-08-12T15:14:04;21.60;94.90
4673;DHT22;61885;53.560;9.940;2023-08-12T15:16:33;21.50;94.30
4673;DHT22;61885;53.560;9.940;2023-08-12T15:19:08;21.60;94.90
4673;DHT22;61885;53.560;9.940;2023-08-12T15:21:37;21.60;94.70
4673;DHT22;61885;53.560;9.940;2023-08-12T15:24:07;21.60;94.00
4673;DHT22;61885;53.560;9.940;2023-08-12T15:26:37;21.70;93.50
4673;DHT22;61885;53.560;9.940;2023-08-12T15:29:08;21.60;93.30
4673;DHT22;61885;53.560;9.940;2023-08-12T15:31:40;21.80;93.90
4673;DHT22;61885;53.560;9.940;2023-08-12T15:34:12;21.80;93.10
4673;DHT22;61885;53.560;9.940;2023-08-12T15:36:43;21.80;92.80
4673;DHT22;61885;53.560;9.940;2023-08-12T15:39:13;21.70;92.80
4673;DHT22;61885;53.560;9.940;2023-08-12T15:41:45;21.60;93.10
4673;DHT22;61885;53.560;9.940;2023-08-12T15:44:17;21.60;93.70
4673;DHT22;61885;53.560;9.940;2023-08-12T15:46:46;21.70;93.90
4673;DHT22;61885;53.560;9.940;2023-08-12T15:49:19;21.80;93.60
4673;DHT22;61885;53.560;9.940;2023-08-12T15:51:50;21.90;93.10
4673;DHT22;61885;53.560;9.940;2023-08-12T15:54:20;21.90;93.20
4673;DHT22;61885;53.560;9.940;2023-08-12T15:56:52;22.00;93.70
4673;DHT22;61885;53.560;9.940;2023-08-12T15:59:22;22.30;93.30
4673;DHT22;61885;53.560;9.940;2023-08-12T16:01:52;23.10;91.40
4673;DHT22;61885;53.560;9.940;2023-08-12T16:04:25;23.50;88.60
4673;DHT22;61885;53.560;9.940;2023-08-12T16:06:55;23.40;87.70
4673;DHT22;61885;53.560;9.940;2023-08-12T16:09:25;23.20;88.90
4673;DHT22;61885;53.560;9.940;2023-08-12T16:11:58;23.00;89.40
4673;DHT22;61885;53.560;9.940;2023-08-12T16:14:27;22.90;89.70